This is the latest recevied weather packets stored in our database for station/object SR4DIG-13. If no packets are shown the sender has not sent any weather packets the latest 10 day(s).
| Time | Temp. | Humidity | Pressure | Rain* | Wind** | Luminosity | Snow |
|---|---|---|---|---|---|---|---|
| 1788534235 | 20° C | 71% | 1005.6 hPa | 0 mm | - | - | - |
| 1788533934 | 20° C | 72% | 1005.7 hPa | 0 mm | - | - | - |
| 1788533633 | 20° C | 73% | 1005.8 hPa | 0 mm | - | - | - |
| 1788533332 | 19.44° C | 74% | 1006.1 hPa | 0 mm | - | - | - |
| 1788533031 | 19.44° C | 74% | 1005.9 hPa | 0 mm | - | - | - |
| 1788532730 | 19.44° C | 74% | 1006.1 hPa | 0 mm | - | - | - |
| 1788532430 | 19.44° C | 74% | 1006.3 hPa | 0 mm | - | - | - |
| 1788532129 | 19.44° C | 74% | 1006.4 hPa | 0 mm | - | - | - |
| 1788531828 | 19.44° C | 74% | 1006.4 hPa | 0 mm | - | - | - |
| 1788531381 | 19.44° C | 75% | 1006.5 hPa | 0 mm | - | - | - |
| 1788531038 | 19.44° C | 74% | 1006.6 hPa | 0 mm | - | - | - |
| 1788530737 | 19.44° C | 74% | 1006.6 hPa | 0 mm | - | - | - |
| 1788530436 | 20° C | 74% | 1006.6 hPa | 0 mm | - | - | - |
| 1788530135 | 20° C | 73% | 1006.7 hPa | 0 mm | - | - | - |
| 1788529834 | 20.56° C | 74% | 1006.7 hPa | 0 mm | - | - | - |
| 1788529533 | 20.56° C | 74% | 1006.7 hPa | 0 mm | - | - | - |
| 1788529232 | 21.11° C | 74% | 1006.7 hPa | 0 mm | - | - | - |
| 1788528631 | 20.56° C | 76% | 1006.9 hPa | 0 mm | - | - | - |
| 1788528029 | 18.89° C | 82% | 1007.1 hPa | 0 mm | - | - | - |
| 1788527753 | 17.78° C | 82% | 1007.2 hPa | 0 mm | - | - | - |
| 1788527427 | 17.22° C | 81% | 1007.3 hPa | 0 mm | - | - | - |
| 1788527126 | 17.22° C | 80% | 1007.4 hPa | 0 mm | - | - | - |
| 1788526825 | 17.22° C | 79% | 1007.5 hPa | 0 mm | - | - | - |
| 1788526524 | 17.22° C | 78% | 1007.6 hPa | 0 mm | - | - | - |
| 1788526223 | 17.78° C | 76% | 1007.5 hPa | 0 mm | - | - | - |
* Rain latest hour (hover to see other rain measurements)
** Current wind speed in m/s (hover to see current wind gust speed)